Key Largo, Florida
Current Conditions -  °F | °C
As of 12:58 PM on Thursday 30 Oct 2014 (Local Time) from KHST Reporting Station
Few Clouds Few Clouds  
Wind Chill: 82°   Ceiling: Unl
Heat Index: 84°   Visibility: 10mi
Dew Point: 65°   Wind: 0mph
Humidity: 57%   Direction: NA
Pressure: 29.94"   Gusts: NA
Location:  25.17°N, 80.38°W
Report Text: KHST 301658Z AUTO 00000KT 10SM FEW041 28/19 A2994 RMK AO2 SLP142 T02780186
Loading
Personal Weather Stations






























Interactive Weather Map
Tropical Storm Tracking
New forecast layout! Learn more

10-Day Weather Forecast

Advertisements
Track Severe Weather on mobile